sensor_id;sensor_type;location;lat;lon;timestamp;pressure;altitude;pressure_sealevel;temperature;humidity
32081;BME280;18593;51.426;7.030;2023-05-10T00:01:18;99751.66;;;15.94;73.51
32081;BME280;18593;51.426;7.030;2023-05-10T00:03:46;99757.81;;;15.95;73.58
32081;BME280;18593;51.426;7.030;2023-05-10T00:06:14;99754.34;;;15.94;73.68
32081;BME280;18593;51.426;7.030;2023-05-10T00:08:41;99755.69;;;15.92;73.81
32081;BME280;18593;51.426;7.030;2023-05-10T00:11:08;99755.94;;;15.90;73.84
32081;BME280;18593;51.426;7.030;2023-05-10T00:13:35;99759.69;;;15.89;73.80
32081;BME280;18593;51.426;7.030;2023-05-10T00:16:03;99751.63;;;15.89;73.65
32081;BME280;18593;51.426;7.030;2023-05-10T00:18:31;99754.31;;;15.89;73.74
32081;BME280;18593;51.426;7.030;2023-05-10T00:20:59;99754.59;;;15.88;73.69
32081;BME280;18593;51.426;7.030;2023-05-10T00:23:26;99747.59;;;15.87;73.85
32081;BME280;18593;51.426;7.030;2023-05-10T00:25:53;99754.31;;;15.84;74.04
32081;BME280;18593;51.426;7.030;2023-05-10T00:28:21;99759.69;;;15.84;74.01
32081;BME280;18593;51.426;7.030;2023-05-10T00:30:48;99753.50;;;15.84;73.99
32081;BME280;18593;51.426;7.030;2023-05-10T00:33:15;99752.69;;;15.83;73.91
32081;BME280;18593;51.426;7.030;2023-05-10T00:35:42;99750.00;;;15.83;74.00
32081;BME280;18593;51.426;7.030;2023-05-10T00:38:11;99749.19;;;15.83;74.10
32081;BME280;18593;51.426;7.030;2023-05-10T00:40:38;99749.72;;;15.80;74.00
32081;BME280;18593;51.426;7.030;2023-05-10T00:43:11;99755.09;;;15.80;74.19
32081;BME280;18593;51.426;7.030;2023-05-10T00:45:40;99750.78;;;15.79;74.22
32081;BME280;18593;51.426;7.030;2023-05-10T00:48:07;99747.56;;;15.77;74.33
32081;BME280;18593;51.426;7.030;2023-05-10T00:50:35;99753.75;;;15.77;74.60
32081;BME280;18593;51.426;7.030;2023-05-10T00:53:02;99755.34;;;15.73;74.68
32081;BME280;18593;51.426;7.030;2023-05-10T00:55:31;99751.28;;;15.70;74.71
32081;BME280;18593;51.426;7.030;2023-05-10T00:57:59;99749.41;;;15.71;74.83
32081;BME280;18593;51.426;7.030;2023-05-10T01:00:26;99759.34;;;15.70;74.83
32081;BME280;18593;51.426;7.030;2023-05-10T01:02:53;99753.16;;;15.70;74.69
32081;BME280;18593;51.426;7.030;2023-05-10T01:05:22;99757.47;;;15.71;74.50
32081;BME280;18593;51.426;7.030;2023-05-10T01:07:50;99756.66;;;15.70;74.67
32081;BME280;18593;51.426;7.030;2023-05-10T01:14:19;99767.16;;;15.72;74.15
32081;BME280;18593;51.426;7.030;2023-05-10T01:16:48;99769.56;;;15.68;73.93
32081;BME280;18593;51.426;7.030;2023-05-10T01:19:21;99769.84;;;15.67;74.05
32081;BME280;18593;51.426;7.030;2023-05-10T01:21:58;99767.38;;;15.65;73.80
32081;BME280;18593;51.426;7.030;2023-05-10T01:25:11;99773.56;;;15.66;73.62
32081;BME280;18593;51.426;7.030;2023-05-10T01:34:16;99778.94;;;15.66;73.26
32081;BME280;18593;51.426;7.030;2023-05-10T01:36:52;99778.41;;;15.64;72.96
32081;BME280;18593;51.426;7.030;2023-05-10T01:39:28;99774.09;;;15.63;73.12
32081;BME280;18593;51.426;7.030;2023-05-10T01:42:10;99774.91;;;15.63;72.99
32081;BME280;18593;51.426;7.030;2023-05-10T01:44:42;99771.16;;;15.64;73.03
32081;BME280;18593;51.426;7.030;2023-05-10T01:47:17;99778.41;;;15.64;72.99
32081;BME280;18593;51.426;7.030;2023-05-10T01:49:52;99782.72;;;15.65;72.79
32081;BME280;18593;51.426;7.030;2023-05-10T01:52:38;99783.78;;;15.64;72.84
32081;BME280;18593;51.426;7.030;2023-05-10T01:55:15;99783.22;;;15.62;72.60
32081;BME280;18593;51.426;7.030;2023-05-10T01:57:44;99785.91;;;15.62;72.69
32081;BME280;18593;51.426;7.030;2023-05-10T02:00:13;99787.75;;;15.61;72.65
32081;BME280;18593;51.426;7.030;2023-05-10T02:02:46;99791.53;;;15.60;72.60
32081;BME280;18593;51.426;7.030;2023-05-10T02:05:16;99789.13;;;15.59;72.56
32081;BME280;18593;51.426;7.030;2023-05-10T02:07:45;99778.09;;;15.60;72.47
32081;BME280;18593;51.426;7.030;2023-05-10T02:10:13;99785.34;;;15.60;72.60
32081;BME280;18593;51.426;7.030;2023-05-10T02:12:44;99795.28;;;15.59;72.56
32081;BME280;18593;51.426;7.030;2023-05-10T02:15:17;99795.28;;;15.59;72.57
32081;BME280;18593;51.426;7.030;2023-05-10T02:17:47;99793.69;;;15.58;72.48
32081;BME280;18593;51.426;7.030;2023-05-10T02:20:16;99795.28;;;15.59;72.52
32081;BME280;18593;51.426;7.030;2023-05-10T02:22:46;99797.19;;;15.59;72.51
32081;BME280;18593;51.426;7.030;2023-05-10T02:25:14;99796.63;;;15.57;72.55
32081;BME280;18593;51.426;7.030;2023-05-10T02:27:43;99803.34;;;15.54;72.38
32081;BME280;18593;51.426;7.030;2023-05-10T02:30:12;99800.38;;;15.56;72.82
32081;BME280;18593;51.426;7.030;2023-05-10T02:32:41;99799.84;;;15.54;72.94
32081;BME280;18593;51.426;7.030;2023-05-10T02:35:10;99798.75;;;15.55;72.81
32081;BME280;18593;51.426;7.030;2023-05-10T02:37:40;99799.84;;;15.54;72.74
32081;BME280;18593;51.426;7.030;2023-05-10T02:40:09;99795.53;;;15.53;72.63
32081;BME280;18593;51.426;7.030;2023-05-10T02:42:38;99794.47;;;15.54;72.66
32081;BME280;18593;51.426;7.030;2023-05-10T02:45:12;99798.75;;;15.55;72.58
32081;BME280;18593;51.426;7.030;2023-05-10T02:47:42;99790.69;;;15.55;72.30
32081;BME280;18593;51.426;7.030;2023-05-10T02:50:10;99789.09;;;15.54;72.41
32081;BME280;18593;51.426;7.030;2023-05-10T02:52:43;99801.44;;;15.55;72.18
32081;BME280;18593;51.426;7.030;2023-05-10T02:55:14;99794.47;;;15.54;72.13
32081;BME280;18593;51.426;7.030;2023-05-10T02:57:51;99796.34;;;15.53;72.08
32081;BME280;18593;51.426;7.030;2023-05-10T03:00:19;99795.53;;;15.53;72.12
32081;BME280;18593;51.426;7.030;2023-05-10T03:02:47;99790.16;;;15.53;72.09
32081;BME280;18593;51.426;7.030;2023-05-10T03:05:14;99801.97;;;15.52;72.09
32081;BME280;18593;51.426;7.030;2023-05-10T03:07:43;99803.84;;;15.51;71.90
32081;BME280;18593;51.426;7.030;2023-05-10T03:10:11;99806.00;;;15.49;72.13
32081;BME280;18593;51.426;7.030;2023-05-10T03:12:56;99802.50;;;15.49;72.19
32081;BME280;18593;51.426;7.030;2023-05-10T03:15:34;99802.78;;;15.47;72.04
32081;BME280;18593;51.426;7.030;2023-05-10T03:18:07;99806.75;;;15.44;72.30
32081;BME280;18593;51.426;7.030;2023-05-10T03:20:41;99809.47;;;15.44;72.23
32081;BME280;18593;51.426;7.030;2023-05-10T03:23:21;99812.41;;;15.43;72.37
32081;BME280;18593;51.426;7.030;2023-05-10T03:25:50;99808.34;;;15.40;72.39
32081;BME280;18593;51.426;7.030;2023-05-10T03:28:20;99818.56;;;15.38;72.34
32081;BME280;18593;51.426;7.030;2023-05-10T03:30:48;99820.69;;;15.36;72.53
32081;BME280;18593;51.426;7.030;2023-05-10T03:33:16;99811.00;;;15.35;72.54
32081;BME280;18593;51.426;7.030;2023-05-10T03:35:45;99816.38;;;15.35;72.64
32081;BME280;18593;51.426;7.030;2023-05-10T03:38:15;99820.13;;;15.34;72.83
32081;BME280;18593;51.426;7.030;2023-05-10T03:40:42;99819.34;;;15.34;72.79
32081;BME280;18593;51.426;7.030;2023-05-10T03:43:09;99819.34;;;15.34;72.71
32081;BME280;18593;51.426;7.030;2023-05-10T03:45:37;99828.19;;;15.34;73.00
32081;BME280;18593;51.426;7.030;2023-05-10T03:48:05;99823.09;;;15.33;72.85
32081;BME280;18593;51.426;7.030;2023-05-10T03:50:32;99827.41;;;15.34;73.04
32081;BME280;18593;51.426;7.030;2023-05-10T03:52:59;99831.69;;;15.35;73.18
32081;BME280;18593;51.426;7.030;2023-05-10T03:55:29;99826.59;;;15.33;73.36
32081;BME280;18593;51.426;7.030;2023-05-10T03:58:00;99831.97;;;15.33;73.53
32081;BME280;18593;51.426;7.030;2023-05-10T04:00:27;99832.50;;;15.35;73.56
32081;BME280;18593;51.426;7.030;2023-05-10T04:02:55;99839.50;;;15.36;73.42
32081;BME280;18593;51.426;7.030;2023-05-10T04:05:23;99829.28;;;15.33;73.52
32081;BME280;18593;51.426;7.030;2023-05-10T04:07:52;99836.25;;;15.34;73.71
32081;BME280;18593;51.426;7.030;2023-05-10T04:10:19;99837.06;;;15.35;73.53
32081;BME280;18593;51.426;7.030;2023-05-10T04:12:48;99838.94;;;15.34;73.71
32081;BME280;18593;51.426;7.030;2023-05-10T04:15:15;99834.66;;;15.33;73.73
32081;BME280;18593;51.426;7.030;2023-05-10T04:17:42;99838.13;;;15.34;73.92
32081;BME280;18593;51.426;7.030;2023-05-10T04:20:11;99833.84;;;15.33;73.59
32081;BME280;18593;51.426;7.030;2023-05-10T04:22:38;99832.19;;;15.32;74.06
32081;BME280;18593;51.426;7.030;2023-05-10T04:25:08;99839.44;;;15.31;74.19
32081;BME280;18593;51.426;7.030;2023-05-10T04:27:35;99841.34;;;15.31;74.17
32081;BME280;18593;51.426;7.030;2023-05-10T04:30:08;99844.81;;;15.31;74.27
32081;BME280;18593;51.426;7.030;2023-05-10T04:32:35;99836.75;;;15.31;74.50
32081;BME280;18593;51.426;7.030;2023-05-10T04:35:03;99842.72;;;15.33;74.46
32081;BME280;18593;51.426;7.030;2023-05-10T04:37:30;99848.88;;;15.34;74.53
32081;BME280;18593;51.426;7.030;2023-05-10T04:39:58;99847.00;;;15.34;74.55
32081;BME280;18593;51.426;7.030;2023-05-10T04:42:25;99836.75;;;15.31;74.95
32081;BME280;18593;51.426;7.030;2023-05-10T04:44:53;99841.06;;;15.32;75.04
32081;BME280;18593;51.426;7.030;2023-05-10T04:47:22;99844.28;;;15.29;75.35
32081;BME280;18593;51.426;7.030;2023-05-10T04:49:49;99844.56;;;15.28;75.35
32081;BME280;18593;51.426;7.030;2023-05-10T04:52:16;99843.72;;;15.27;75.45
32081;BME280;18593;51.426;7.030;2023-05-10T04:54:44;99854.22;;;15.29;75.59
32081;BME280;18593;51.426;7.030;2023-05-10T04:57:11;99849.66;;;15.29;75.34
32081;BME280;18593;51.426;7.030;2023-05-10T04:59:38;99850.72;;;15.28;75.35
32081;BME280;18593;51.426;7.030;2023-05-10T05:02:06;99854.47;;;15.27;75.68
32081;BME280;18593;51.426;7.030;2023-05-10T05:04:34;99861.72;;;15.27;75.77
32081;BME280;18593;51.426;7.030;2023-05-10T05:07:02;99852.03;;;15.26;75.92
32081;BME280;18593;51.426;7.030;2023-05-10T05:09:29;99851.78;;;15.27;75.87
32081;BME280;18593;51.426;7.030;2023-05-10T05:11:57;99858.78;;;15.28;75.82
32081;BME280;18593;51.426;7.030;2023-05-10T05:14:25;99869.28;;;15.30;75.78
32081;BME280;18593;51.426;7.030;2023-05-10T05:16:52;99867.66;;;15.29;75.96
32081;BME280;18593;51.426;7.030;2023-05-10T05:19:20;99873.03;;;15.29;75.92
32081;BME280;18593;51.426;7.030;2023-05-10T05:21:48;99875.72;;;15.29;76.11
32081;BME280;18593;51.426;7.030;2023-05-10T05:24:16;99873.03;;;15.29;76.03
32081;BME280;18593;51.426;7.030;2023-05-10T05:26:43;99869.00;;;15.31;76.17
32081;BME280;18593;51.426;7.030;2023-05-10T05:29:10;99876.00;;;15.32;76.43
32081;BME280;18593;51.426;7.030;2023-05-10T05:31:37;99877.38;;;15.35;76.45
32081;BME280;18593;51.426;7.030;2023-05-10T05:34:05;99878.97;;;15.36;76.46
32081;BME280;18593;51.426;7.030;2023-05-10T05:36:32;99883.28;;;15.37;76.46
32081;BME280;18593;51.426;7.030;2023-05-10T05:39:00;99885.75;;;15.38;76.52
32081;BME280;18593;51.426;7.030;2023-05-10T05:41:28;99886.53;;;15.39;76.59
32081;BME280;18593;51.426;7.030;2023-05-10T05:43:55;99893.25;;;15.41;76.49
32081;BME280;18593;51.426;7.030;2023-05-10T05:46:22;99879.81;;;15.41;76.86
32081;BME280;18593;51.426;7.030;2023-05-10T05:48:49;99890.56;;;15.41;76.84
32081;BME280;18593;51.426;7.030;2023-05-10T05:51:17;99886.84;;;15.42;76.79
32081;BME280;18593;51.426;7.030;2023-05-10T05:53:44;99893.84;;;15.43;76.81
32081;BME280;18593;51.426;7.030;2023-05-10T05:56:12;99894.66;;;15.44;77.14
32081;BME280;18593;51.426;7.030;2023-05-10T05:58:43;99900.00;;;15.44;76.88
32081;BME280;18593;51.426;7.030;2023-05-10T06:01:10;99903.78;;;15.43;76.88
32081;BME280;18593;51.426;7.030;2023-05-10T06:03:37;99909.38;;;15.41;77.16
32081;BME280;18593;51.426;7.030;2023-05-10T06:06:05;99898.63;;;15.41;77.16
32081;BME280;18593;51.426;7.030;2023-05-10T06:08:32;99905.09;;;15.40;77.26
32081;BME280;18593;51.426;7.030;2023-05-10T06:10:59;99908.56;;;15.41;77.28
32081;BME280;18593;51.426;7.030;2023-05-10T06:13:28;99915.03;;;15.40;77.17
32081;BME280;18593;51.426;7.030;2023-05-10T06:15:58;99922.81;;;15.41;77.43
32081;BME280;18593;51.426;7.030;2023-05-10T06:18:26;99924.47;;;15.42;77.18
32081;BME280;18593;51.426;7.030;2023-05-10T06:20:53;99925.28;;;15.43;77.20
32081;BME280;18593;51.426;7.030;2023-05-10T06:23:20;99927.97;;;15.43;77.47
32081;BME280;18593;51.426;7.030;2023-05-10T06:25:48;99928.50;;;15.45;77.22
32081;BME280;18593;51.426;7.030;2023-05-10T06:28:15;99926.63;;;15.45;77.47
32081;BME280;18593;51.426;7.030;2023-05-10T06:30:44;99926.38;;;15.47;77.54
32081;BME280;18593;51.426;7.030;2023-05-10T06:33:11;99923.44;;;15.49;77.54
32081;BME280;18593;51.426;7.030;2023-05-10T06:35:38;99936.59;;;15.50;77.41
32081;BME280;18593;51.426;7.030;2023-05-10T06:38:05;99932.03;;;15.51;78.34
32081;BME280;18593;51.426;7.030;2023-05-10T06:40:33;99936.59;;;15.50;78.55
32081;BME280;18593;51.426;7.030;2023-05-10T06:43:00;99944.41;;;15.52;78.36
32081;BME280;18593;51.426;7.030;2023-05-10T06:45:27;99941.22;;;15.55;78.23
32081;BME280;18593;51.426;7.030;2023-05-10T06:47:56;99948.78;;;15.58;78.21
32081;BME280;18593;51.426;7.030;2023-05-10T06:50:23;99942.06;;;15.60;78.73
32081;BME280;18593;51.426;7.030;2023-05-10T06:52:51;99941.59;;;15.63;78.64
32081;BME280;18593;51.426;7.030;2023-05-10T06:55:18;99937.59;;;15.71;79.24
32081;BME280;18593;51.426;7.030;2023-05-10T06:57:45;99943.53;;;15.73;79.19
32081;BME280;18593;51.426;7.030;2023-05-10T07:00:14;99945.44;;;15.73;79.26
32081;BME280;18593;51.426;7.030;2023-05-10T07:02:41;99948.66;;;15.75;78.91
32081;BME280;18593;51.426;7.030;2023-05-10T07:05:10;99945.69;;;15.76;79.20
32081;BME280;18593;51.426;7.030;2023-05-10T07:07:38;99953.75;;;15.76;78.99
32081;BME280;18593;51.426;7.030;2023-05-10T07:10:06;99949.50;;;15.80;78.79
32081;BME280;18593;51.426;7.030;2023-05-10T07:12:34;99953.00;;;15.81;78.57
32081;BME280;18593;51.426;7.030;2023-05-10T07:15:01;99955.44;;;15.82;78.30
32081;BME280;18593;51.426;7.030;2023-05-10T07:17:28;99955.97;;;15.84;78.10
32081;BME280;18593;51.426;7.030;2023-05-10T07:19:56;99956.56;;;15.86;78.79
32081;BME280;18593;51.426;7.030;2023-05-10T07:22:25;99952.19;;;15.80;78.92
32081;BME280;18593;51.426;7.030;2023-05-10T07:24:52;99947.91;;;15.84;79.06
32081;BME280;18593;51.426;7.030;2023-05-10T07:27:19;99956.59;;;15.91;79.24
32081;BME280;18593;51.426;7.030;2023-05-10T07:29:46;99950.44;;;15.96;79.23
32081;BME280;18593;51.426;7.030;2023-05-10T07:32:14;99947.19;;;15.99;79.58
32081;BME280;18593;51.426;7.030;2023-05-10T07:34:41;99954.00;;;16.07;79.16
32081;BME280;18593;51.426;7.030;2023-05-10T07:37:09;99953.75;;;16.13;79.47
32081;BME280;18593;51.426;7.030;2023-05-10T07:39:37;99948.66;;;16.17;79.11
32081;BME280;18593;51.426;7.030;2023-05-10T07:42:04;99953.47;;;16.15;78.83
32081;BME280;18593;51.426;7.030;2023-05-10T07:44:32;99955.13;;;16.16;78.54
32081;BME280;18593;51.426;7.030;2023-05-10T07:46:59;99963.19;;;16.16;78.26
32081;BME280;18593;51.426;7.030;2023-05-10T07:49:26;99968.56;;;16.16;78.00
32081;BME280;18593;51.426;7.030;2023-05-10T07:51:53;99965.84;;;16.11;77.60
32081;BME280;18593;51.426;7.030;2023-05-10T07:54:20;99969.06;;;16.08;77.39
32081;BME280;18593;51.426;7.030;2023-05-10T07:56:49;99966.34;;;16.03;77.12
32081;BME280;18593;51.426;7.030;2023-05-10T07:59:17;99973.88;;;16.01;77.10
32081;BME280;18593;51.426;7.030;2023-05-10T08:01:45;99967.09;;;15.98;76.81
32081;BME280;18593;51.426;7.030;2023-05-10T08:04:12;99976.75;;;15.94;77.25
32081;BME280;18593;51.426;7.030;2023-05-10T08:06:40;99984.81;;;15.94;77.48
32081;BME280;18593;51.426;7.030;2023-05-10T08:09:07;99984.81;;;15.94;77.77
32081;BME280;18593;51.426;7.030;2023-05-10T08:11:34;99984.03;;;15.93;78.41
32081;BME280;18593;51.426;7.030;2023-05-10T08:14:03;99981.06;;;15.95;77.89
32081;BME280;18593;51.426;7.030;2023-05-10T08:16:30;99985.94;;;15.98;78.24
32081;BME280;18593;51.426;7.030;2023-05-10T08:18:58;99997.00;;;16.02;78.81
32081;BME280;18593;51.426;7.030;2023-05-10T08:21:25;99994.56;;;16.05;78.76
32081;BME280;18593;51.426;7.030;2023-05-10T08:23:52;99994.06;;;16.08;78.76
32081;BME280;18593;51.426;7.030;2023-05-10T08:26:20;99990.06;;;16.11;79.04
32081;BME280;18593;51.426;7.030;2023-05-10T08:28:47;100001.09;;;16.14;78.73
32081;BME280;18593;51.426;7.030;2023-05-10T08:31:16;100002.19;;;16.18;78.66
32081;BME280;18593;51.426;7.030;2023-05-10T08:33:43;100007.88;;;16.22;78.57
32081;BME280;18593;51.426;7.030;2023-05-10T08:36:11;100006.81;;;16.23;78.38
32081;BME280;18593;51.426;7.030;2023-05-10T08:38:40;100010.31;;;16.23;78.25
32081;BME280;18593;51.426;7.030;2023-05-10T08:41:07;100011.13;;;16.24;78.45
32081;BME280;18593;51.426;7.030;2023-05-10T08:43:36;100021.38;;;16.27;78.30
32081;BME280;18593;51.426;7.030;2023-05-10T08:46:05;100012.22;;;16.28;77.69
32081;BME280;18593;51.426;7.030;2023-05-10T08:48:36;100019.78;;;16.31;77.63
32081;BME280;18593;51.426;7.030;2023-05-10T08:51:04;100020.63;;;16.37;77.72
32081;BME280;18593;51.426;7.030;2023-05-10T08:53:33;100024.16;;;16.42;77.31
32081;BME280;18593;51.426;7.030;2023-05-10T08:56:04;100022.53;;;16.41;77.61
32081;BME280;18593;51.426;7.030;2023-05-10T08:58:32;100026.56;;;16.44;77.46
32081;BME280;18593;51.426;7.030;2023-05-10T09:00:59;100028.72;;;16.42;77.01
32081;BME280;18593;51.426;7.030;2023-05-10T09:03:27;100030.34;;;16.43;77.16
32081;BME280;18593;51.426;7.030;2023-05-10T09:05:56;100034.41;;;16.45;77.15
32081;BME280;18593;51.426;7.030;2023-05-10T09:08:24;100021.19;;;16.44;76.16
32081;BME280;18593;51.426;7.030;2023-05-10T09:10:52;100023.63;;;16.45;76.11
32081;BME280;18593;51.426;7.030;2023-05-10T09:13:21;100028.44;;;16.43;76.84
32081;BME280;18593;51.426;7.030;2023-05-10T09:15:49;100030.63;;;16.46;77.17
32081;BME280;18593;51.426;7.030;2023-05-10T09:18:16;100032.81;;;16.50;77.08
32081;BME280;18593;51.426;7.030;2023-05-10T09:20:43;100035.50;;;16.50;76.88
32081;BME280;18593;51.426;7.030;2023-05-10T09:23:12;100036.03;;;16.52;76.70
32081;BME280;18593;51.426;7.030;2023-05-10T09:25:41;100035.53;;;16.55;76.67
32081;BME280;18593;51.426;7.030;2023-05-10T09:28:09;100040.38;;;16.58;76.67
32081;BME280;18593;51.426;7.030;2023-05-10T09:30:37;100041.75;;;16.60;76.40
32081;BME280;18593;51.426;7.030;2023-05-10T09:33:05;100037.47;;;16.64;76.76
32081;BME280;18593;51.426;7.030;2023-05-10T09:35:33;100043.66;;;16.65;76.77
32081;BME280;18593;51.426;7.030;2023-05-10T09:38:04;100052.53;;;16.60;75.28
32081;BME280;18593;51.426;7.030;2023-05-10T09:40:33;100053.84;;;16.58;75.18
32081;BME280;18593;51.426;7.030;2023-05-10T09:43:02;100054.91;;;16.57;74.03
32081;BME280;18593;51.426;7.030;2023-05-10T09:45:31;100059.75;;;16.50;73.83
32081;BME280;18593;51.426;7.030;2023-05-10T09:48:00;100069.44;;;16.51;74.38
32081;BME280;18593;51.426;7.030;2023-05-10T09:50:29;100064.84;;;16.51;74.44
32081;BME280;18593;51.426;7.030;2023-05-10T09:52:59;100069.66;;;16.49;74.12
32081;BME280;18593;51.426;7.030;2023-05-10T09:55:40;100064.00;;;16.45;72.47
32081;BME280;18593;51.426;7.030;2023-05-10T09:58:10;100068.03;;;16.43;73.45
32081;BME280;18593;51.426;7.030;2023-05-10T10:00:39;100076.38;;;16.41;73.18
32081;BME280;18593;51.426;7.030;2023-05-10T10:03:12;100080.13;;;16.40;73.21
32081;BME280;18593;51.426;7.030;2023-05-10T10:05:41;100070.97;;;16.41;72.89
32081;BME280;18593;51.426;7.030;2023-05-10T10:08:09;100076.63;;;16.40;73.06
32081;BME280;18593;51.426;7.030;2023-05-10T10:10:39;100067.50;;;16.46;73.42
32081;BME280;18593;51.426;7.030;2023-05-10T10:13:07;100068.66;;;16.55;74.19
32081;BME280;18593;51.426;7.030;2023-05-10T10:15:35;100064.59;;;16.58;72.88
32081;BME280;18593;51.426;7.030;2023-05-10T10:18:03;100061.94;;;16.63;73.61
32081;BME280;18593;51.426;7.030;2023-05-10T10:20:31;100064.41;;;16.64;74.11
32081;BME280;18593;51.426;7.030;2023-05-10T10:22:59;100069.25;;;16.67;73.70
32081;BME280;18593;51.426;7.030;2023-05-10T10:25:26;100068.50;;;16.72;74.09
32081;BME280;18593;51.426;7.030;2023-05-10T10:28:11;100066.31;;;16.69;72.17
32081;BME280;18593;51.426;7.030;2023-05-10T10:30:48;100075.16;;;16.64;70.87
32081;BME280;18593;51.426;7.030;2023-05-10T10:33:36;100078.63;;;16.60;70.09
32081;BME280;18593;51.426;7.030;2023-05-10T10:36:06;100082.38;;;16.59;70.56
32081;BME280;18593;51.426;7.030;2023-05-10T10:41:31;100081.56;;;16.58;71.45
32081;BME280;18593;51.426;7.030;2023-05-10T10:44:26;100084.84;;;16.60;71.83
32081;BME280;18593;51.426;7.030;2023-05-10T10:47:02;100091.84;;;16.61;71.33
32081;BME280;18593;51.426;7.030;2023-05-10T10:49:32;100097.22;;;16.61;71.91
32081;BME280;18593;51.426;7.030;2023-05-10T10:52:23;100096.91;;;16.58;71.14
32081;BME280;18593;51.426;7.030;2023-05-10T10:54:57;100093.38;;;16.52;70.70
32081;BME280;18593;51.426;7.030;2023-05-10T10:57:25;100096.03;;;16.47;70.18
32081;BME280;18593;51.426;7.030;2023-05-10T11:00:26;100103.28;;;16.41;70.90
32081;BME280;18593;51.426;7.030;2023-05-10T11:02:57;100092.50;;;16.41;70.81
32081;BME280;18593;51.426;7.030;2023-05-10T11:05:43;100099.97;;;16.34;70.20
32081;BME280;18593;51.426;7.030;2023-05-10T11:08:17;100101.06;;;16.33;69.79
32081;BME280;18593;51.426;7.030;2023-05-10T11:11:06;100107.00;;;16.35;70.69
32081;BME280;18593;51.426;7.030;2023-05-10T11:13:41;100105.41;;;16.39;71.06
32081;BME280;18593;51.426;7.030;2023-05-10T11:16:18;100112.47;;;16.45;72.01
32081;BME280;18593;51.426;7.030;2023-05-10T11:19:00;100114.34;;;16.45;71.22
32081;BME280;18593;51.426;7.030;2023-05-10T11:21:29;100113.81;;;16.48;71.08
32081;BME280;18593;51.426;7.030;2023-05-10T11:23:58;100113.03;;;16.53;70.82
32081;BME280;18593;51.426;7.030;2023-05-10T11:26:32;100113.06;;;16.58;71.23
32081;BME280;18593;51.426;7.030;2023-05-10T11:29:00;100107.72;;;16.63;71.17
32081;BME280;18593;51.426;7.030;2023-05-10T11:31:30;100116.09;;;16.66;70.83
32081;BME280;18593;51.426;7.030;2023-05-10T11:33:59;100115.00;;;16.62;68.35
32081;BME280;18593;51.426;7.030;2023-05-10T11:36:32;100123.59;;;16.59;69.61
32081;BME280;18593;51.426;7.030;2023-05-10T11:38:59;100130.59;;;16.60;70.09
32081;BME280;18593;51.426;7.030;2023-05-10T11:41:29;100130.03;;;16.58;70.57
32081;BME280;18593;51.426;7.030;2023-05-10T11:43:58;100127.88;;;16.55;70.32
32081;BME280;18593;51.426;7.030;2023-05-10T11:46:27;100130.00;;;16.53;70.48
32081;BME280;18593;51.426;7.030;2023-05-10T11:48:58;100134.31;;;16.54;70.65
32081;BME280;18593;51.426;7.030;2023-05-10T11:51:32;100124.63;;;16.53;71.04
32081;BME280;18593;51.426;7.030;2023-05-10T11:54:05;100131.38;;;16.56;71.13
32081;BME280;18593;51.426;7.030;2023-05-10T11:56:32;100131.88;;;16.53;69.91
32081;BME280;18593;51.426;7.030;2023-05-10T11:59:00;100127.53;;;16.46;69.79
32081;BME280;18593;51.426;7.030;2023-05-10T12:01:28;100127.84;;;16.50;70.03
32081;BME280;18593;51.426;7.030;2023-05-10T12:03:58;100136.16;;;16.48;70.37
32081;BME280;18593;51.426;7.030;2023-05-10T12:06:28;100135.63;;;16.46;69.92
32081;BME280;18593;51.426;7.030;2023-05-10T12:08:57;100141.81;;;16.47;70.20
32081;BME280;18593;51.426;7.030;2023-05-10T12:11:25;100139.97;;;16.53;70.92
32081;BME280;18593;51.426;7.030;2023-05-10T12:13:54;100134.03;;;16.51;69.79
32081;BME280;18593;51.426;7.030;2023-05-10T12:16:23;100132.69;;;16.53;70.33
32081;BME280;18593;51.426;7.030;2023-05-10T12:18:52;100138.06;;;16.53;70.23
32081;BME280;18593;51.426;7.030;2023-05-10T12:21:21;100141.63;;;16.59;70.16
32081;BME280;18593;51.426;7.030;2023-05-10T12:23:52;100142.22;;;16.66;70.86
32081;BME280;18593;51.426;7.030;2023-05-10T12:26:22;100137.13;;;16.69;69.34
32081;BME280;18593;51.426;7.030;2023-05-10T12:28:50;100141.72;;;16.69;68.87
32081;BME280;18593;51.426;7.030;2023-05-10T12:31:17;100136.31;;;16.69;68.14
32081;BME280;18593;51.426;7.030;2023-05-10T12:33:45;100141.72;;;16.69;68.75
32081;BME280;18593;51.426;7.030;2023-05-10T12:36:16;100143.91;;;16.72;69.59
32081;BME280;18593;51.426;7.030;2023-05-10T12:38:45;100143.91;;;16.72;68.57
32081;BME280;18593;51.426;7.030;2023-05-10T12:41:16;100143.84;;;16.67;68.57
32081;BME280;18593;51.426;7.030;2023-05-10T12:43:44;100147.59;;;16.66;68.27
32081;BME280;18593;51.426;7.030;2023-05-10T12:46:14;100146.53;;;16.67;68.27
32081;BME280;18593;51.426;7.030;2023-05-10T12:48:43;100149.28;;;16.72;69.09
32081;BME280;18593;51.426;7.030;2023-05-10T12:51:11;100152.78;;;16.72;68.16
32081;BME280;18593;51.426;7.030;2023-05-10T12:53:41;100151.19;;;16.77;69.03
32081;BME280;18593;51.426;7.030;2023-05-10T12:56:10;100152.03;;;16.82;68.16
32081;BME280;18593;51.426;7.030;2023-05-10T12:58:38;100155.28;;;16.84;67.94
32081;BME280;18593;51.426;7.030;2023-05-10T13:01:05;100154.25;;;16.90;68.80
32081;BME280;18593;51.426;7.030;2023-05-10T13:03:32;100146.69;;;16.92;66.37
32081;BME280;18593;51.426;7.030;2023-05-10T13:06:00;100146.22;;;17.01;66.68
32081;BME280;18593;51.426;7.030;2023-05-10T13:08:27;100148.41;;;17.04;66.25
32081;BME280;18593;51.426;7.030;2023-05-10T13:10:59;100138.97;;;17.06;65.97
32081;BME280;18593;51.426;7.030;2023-05-10T13:13:27;100145.19;;;17.12;66.03
32081;BME280;18593;51.426;7.030;2023-05-10T13:15:54;100149.25;;;17.14;66.27
32081;BME280;18593;51.426;7.030;2023-05-10T13:18:22;100146.28;;;17.16;65.60
32081;BME280;18593;51.426;7.030;2023-05-10T13:20:50;100143.09;;;17.19;66.21
32081;BME280;18593;51.426;7.030;2023-05-10T13:23:17;100144.69;;;17.20;65.98